createdAt,value
2018-07-28T16:10:10.595Z,99945.54
2018-07-28T16:13:27.990Z,99942.28
2018-07-28T16:15:57.773Z,99940.71
2018-07-28T16:18:27.559Z,99944.38
2018-07-28T16:20:56.972Z,99955.52
2018-07-28T16:23:26.751Z,99955.39
2018-07-28T16:25:56.587Z,99957.80
2018-07-28T16:28:26.368Z,99957.33
2018-07-28T16:30:56.211Z,99962.59
2018-07-28T16:33:26.327Z,99964.13
2018-07-28T16:35:56.085Z,99961.38
2018-07-28T16:38:25.994Z,99958.89
2018-07-28T16:40:56.113Z,99964.02
2018-07-28T16:43:26.048Z,99966.18
2018-07-28T16:45:58.161Z,99972.45
2018-07-28T16:48:27.996Z,99974.55
2018-07-28T16:50:58.524Z,99976.84
2018-07-28T16:53:28.342Z,99967.44
2018-07-28T16:55:58.240Z,99970.81
2018-07-28T16:58:28.108Z,99968.61
2018-07-28T17:00:58.325Z,99969.52
2018-07-28T17:03:28.687Z,99975.39
2018-07-28T17:05:58.874Z,99976.78
2018-07-28T17:08:29.785Z,99976.69
2018-07-28T17:10:59.901Z,99976.23
2018-07-28T17:13:29.747Z,99985.49
2018-07-28T17:15:59.541Z,99994.18
2018-07-28T17:18:30.453Z,99997.95
2018-07-28T17:21:00.704Z,100010.90
2018-07-28T17:23:30.707Z,100024.66
2018-07-28T17:26:00.831Z,100040.72
2018-07-28T17:28:31.707Z,100039.97
2018-07-28T17:31:02.764Z,100062.03
2018-07-28T17:33:32.405Z,100057.00
2018-07-28T17:36:02.643Z,100060.10
2018-07-28T17:38:32.836Z,100061.16
2018-07-28T17:41:03.317Z,100069.57
2018-07-28T17:43:33.431Z,100076.34
2018-07-28T17:46:03.383Z,100052.59
2018-07-28T17:48:33.367Z,100043.77
2018-07-28T17:51:04.160Z,100064.11
2018-07-28T17:53:34.043Z,100061.63
2018-07-28T17:56:04.108Z,100064.27
2018-07-28T17:58:34.573Z,100058.09
2018-07-28T18:01:04.587Z,100046.79
2018-07-28T18:03:35.579Z,100035.97
2018-07-28T18:06:05.763Z,100042.59
2018-07-28T18:08:37.998Z,100038.22
2018-07-28T18:11:08.326Z,100042.52
2018-07-28T18:13:38.312Z,100047.54
2018-07-28T18:16:14.708Z,100055.36
2018-07-28T18:18:44.605Z,100053.36
2018-07-28T18:21:16.096Z,100070.12
2018-07-28T18:23:46.138Z,100079.44
2018-07-28T18:26:18.195Z,100085.81
2018-07-28T18:28:50.041Z,100093.19
2018-07-28T18:31:20.080Z,100089.91
2018-07-28T18:33:50.705Z,100096.16
2018-07-28T18:36:21.279Z,100095.03
2018-07-28T18:38:51.500Z,100103.27
2018-07-28T18:41:21.347Z,100150.52
2018-07-28T18:43:51.575Z,100148.73
2018-07-28T18:46:22.220Z,100171.87
2018-07-28T18:48:54.289Z,100172.73
2018-07-28T18:51:25.390Z,100170.50
2018-07-28T18:53:57.064Z,100163.91
2018-07-28T18:56:27.115Z,100162.06
2018-07-28T18:58:56.964Z,100163.30
2018-07-28T19:01:27.369Z,100159.11
2018-07-28T19:03:57.975Z,100174.62
2018-07-28T19:06:28.542Z,100178.12
2018-07-28T19:09:03.246Z,100182.11
2018-07-28T19:11:34.272Z,100190.70
2018-07-28T19:14:09.158Z,100194.91
2018-07-28T19:16:39.177Z,100213.01
2018-07-28T19:19:14.532Z,100228.14
2018-07-28T19:21:46.214Z,100237.54
2018-07-28T19:24:16.172Z,100240.02
2018-07-28T19:26:46.056Z,100260.08
2018-07-28T19:29:21.143Z,100270.56
2018-07-28T19:31:50.971Z,100273.84
2018-07-28T19:34:21.721Z,100297.45
2018-07-28T19:36:57.917Z,100300.68
2018-07-28T19:39:27.699Z,100303.97
2018-07-28T19:42:02.678Z,100310.70
2018-07-28T19:44:32.497Z,100314.42
2018-07-28T19:47:02.323Z,100316.25
2018-07-28T19:49:33.085Z,100306.98
2018-07-28T19:52:03.160Z,100297.56
2018-07-28T19:54:33.536Z,100290.89
2018-07-28T19:57:03.707Z,100295.20
2018-07-28T19:59:34.294Z,100300.11
2018-07-28T20:02:04.400Z,100296.53
2018-07-28T20:04:34.198Z,100299.28
2018-07-28T20:07:04.139Z,100297.05
2018-07-28T20:09:36.482Z,100301.50
2018-07-28T20:12:06.435Z,100308.94
2018-07-28T20:14:36.264Z,100310.77
2018-07-28T20:17:09.996Z,100311.18
2018-07-28T20:19:41.200Z,100307.76
2018-07-28T20:22:11.112Z,100308.55
2018-07-28T20:24:41.379Z,100317.94
2018-07-28T20:27:11.605Z,100331.78
2018-07-28T20:29:41.782Z,100328.98
2018-07-28T20:32:11.795Z,100326.58
2018-07-28T20:34:41.798Z,100331.33
2018-07-28T20:37:11.826Z,100339.30
2018-07-28T20:39:41.707Z,100342.86
2018-07-28T20:42:12.022Z,100353.41
2018-07-28T20:44:41.789Z,100355.42
2018-07-28T20:47:11.661Z,100360.81
2018-07-28T20:49:41.480Z,100363.09
2018-07-28T20:52:11.663Z,100365.50
2018-07-28T20:54:41.460Z,100360.41
2018-07-28T20:57:11.803Z,100359.28
2018-07-28T20:59:48.714Z,100360.14
2018-07-28T21:02:18.612Z,100359.62
2018-07-28T21:04:48.466Z,100363.30
2018-07-28T21:07:18.462Z,100370.38
2018-07-28T21:09:49.038Z,100366.14
2018-07-28T21:12:19.830Z,100374.96
2018-07-28T21:14:50.312Z,100370.33
2018-07-28T21:17:20.259Z,100378.41
2018-07-28T21:19:50.191Z,100381.58
2018-07-28T21:22:20.273Z,100388.41
2018-07-28T21:24:50.092Z,100385.91
2018-07-28T21:27:19.626Z,100390.91
2018-07-28T21:29:49.751Z,100385.02
2018-07-28T21:32:19.513Z,100378.41
2018-07-28T21:34:49.833Z,100382.44
2018-07-28T21:37:20.322Z,100380.33
2018-07-28T21:39:50.162Z,100383.20
2018-07-28T21:42:20.282Z,100390.38
2018-07-28T21:44:50.201Z,100395.69
2018-07-28T21:47:19.956Z,100388.19
2018-07-28T21:49:50.034Z,100386.30
2018-07-28T21:52:20.505Z,100373.05
2018-07-28T21:54:50.573Z,100373.06
2018-07-28T21:57:20.389Z,100377.01
2018-07-28T21:59:49.821Z,100387.05
2018-07-28T22:02:19.733Z,100391.38
2018-07-28T22:04:49.590Z,100393.11
2018-07-28T22:07:19.388Z,100393.98
2018-07-28T22:09:49.210Z,100401.95
2018-07-28T22:12:18.984Z,100400.52
2018-07-28T22:14:48.698Z,100398.69
2018-07-28T22:17:18.424Z,100399.23
2018-07-28T22:19:48.175Z,100398.57
2018-07-28T22:22:17.963Z,100408.05
2018-07-28T22:24:47.685Z,100408.92
2018-07-28T22:27:17.542Z,100410.55
2018-07-28T22:29:47.902Z,100406.61
2018-07-28T22:32:17.766Z,100402.20
2018-07-28T22:34:47.548Z,100411.13
2018-07-28T22:37:17.379Z,100416.69
2018-07-28T22:39:46.755Z,100430.05
2018-07-28T22:42:16.593Z,100433.59
2018-07-28T22:44:46.339Z,100427.55
2018-07-28T22:47:16.137Z,100430.77
2018-07-28T22:49:45.902Z,100429.64
2018-07-28T22:52:15.849Z,100431.84
2018-07-28T22:54:45.564Z,100445.89
2018-07-28T22:57:16.025Z,100448.52
2018-07-28T22:59:45.916Z,100456.59
2018-07-28T23:02:15.789Z,100463.69
2018-07-28T23:04:45.927Z,100468.89
2018-07-28T23:07:16.896Z,100479.82
2018-07-28T23:09:46.794Z,100476.19
2018-07-28T23:12:16.566Z,100485.50
2018-07-28T23:14:46.371Z,100492.30
2018-07-28T23:17:16.158Z,100493.45
2018-07-28T23:19:46.216Z,100495.28
2018-07-28T23:22:16.053Z,100494.23
2018-07-28T23:24:45.902Z,100500.18
2018-07-28T23:27:15.732Z,100508.51
2018-07-28T23:29:45.552Z,100511.97
2018-07-28T23:32:15.656Z,100518.22
2018-07-28T23:34:46.078Z,100517.34
2018-07-28T23:37:16.609Z,100512.18
2018-07-28T23:39:46.740Z,100514.48
2018-07-28T23:42:16.796Z,100518.52
2018-07-28T23:44:46.643Z,100514.00
2018-07-28T23:47:16.610Z,100516.30
2018-07-28T23:49:46.628Z,100520.04
2018-07-28T23:52:16.607Z,100514.86
2018-07-28T23:54:47.445Z,100509.87
2018-07-28T23:57:19.280Z,100524.92
2018-07-28T23:59:50.294Z,100522.92
